SBPA/POA METAR and TAF weather

Enter ICAO airport designator
Station Type Date Time Source
SBPA METAR 2019/12/14 17:00 UTC NOAA

SBPA 141700Z 21008KT 150V250 CAVOK 32/16 Q1015


Station Type Date Time Source
SBPA Decoded METAR 2019/12/14 17:00 UTC NOAA

Porto Alegre Aero-Porto , Brazil (SBPA) 30-00S 051-11W 3M
Dec 14, 2019 - 12:00 PM EST / 2019.12.14 1700 UTC
Wind: from the SSW (210 degrees) at 9 MPH (8 KT) (direction variable):0
Visibility: greater than 7 mile(s):0
Temperature: 89 F (32 C)
Dew Point: 60 F (16 C)
Relative Humidity: 38%
Pressure (altimeter): 29.97 in. Hg (1015 hPa)
ob: SBPA 141700Z 21008KT 150V250 CAVOK 32/16 Q1015
cycle: 17

Station Type Date Time Source
SBPA TAF 2019/12/14 18:09 UTC NOAA

TAF SBPA 141500Z 1418/1518 10009KT CAVOK TN18/1509Z TX33/1518Z
BECMG 1512/1514 02010KT 9999 SCT040
RMK PER

Example: see airport list